Cherokee County Regional Airport
Monday 11:55 PM
Weather Clear
VFR
Temperature 77°
Dew Point 68°
Feels Like 77°
Relative Humidity 74
%
Visibility 10
mi
Pressure 1004.1
mb
Wind Direction S
Wind Speed 13
mph
Last Hour Precip 0.00
"
KCKP 180455Z AUTO 17011KT 10SM CLR 25/20 A2965 RMK AO2 402810154

Recent Observations

Time Present Weather Temp DP Feels RH% Vsby Pressure Ceiling Direction Speed Gust 1h Precip
11:55PM
VFR
77° 68° 77° 74
%
10
mi
1004.1
mb
None S 13
mph
0.00"
KCKP 180455Z AUTO 17011KT 10SM CLR 25/20 A2965 RMK AO2 402810154
11:35PM
VFR
79° 68° 79° 70
%
10
mi
1004.4
mb
None S 15
mph
20
mph
0.00"
KCKP 180435Z AUTO 17013G17KT 10SM CLR 26/20 A2966 RMK AO2
11:15PM
VFR
HZ 79° 68° 79° 70
%
7
mi
1004.1
mb
None SSE 17
mph
0.00"
KCKP 180415Z AUTO 16015KT 7SM HZ CLR 26/20 A2965 RMK AO2
10:55PM
VFR
79° 70° 79° 74
%
10
mi
1004.1
mb
None S 15
mph
0.00"
KCKP 180355Z AUTO 17013KT 10SM CLR 26/21 A2965 RMK AO2
10:35PM
VFR
79° 70° 79° 74
%
10
mi
1004.1
mb
None S 13
mph
20
mph
0.00"
KCKP 180335Z AUTO 17011G17KT 10SM CLR 26/21 A2965 RMK AO2
10:15PM
VFR
81° 70° 84° 70
%
10
mi
1004.1
mb
None S 16
mph
0.00"
KCKP 180315Z AUTO 17014KT 10SM CLR 27/21 A2965 RMK AO2
9:55PM
VFR
81° 70° 84° 70
%
10
mi
1003.7
mb
None S 14
mph
0.00"
KCKP 180255Z AUTO 17012KT 10SM CLR 27/21 A2964 RMK AO2
9:35PM
VFR
81° 70° 84° 70
%
10
mi
1003.7
mb
None SSE 16
mph
22
mph
0.00"
KCKP 180235Z AUTO 16014G19KT 10SM SCT065 27/21 A2964 RMK AO2
9:15PM
VFR
81° 70° 84° 70
%
10
mi
1003.7
mb
6500
ft
SSE 16
mph
0.00"
KCKP 180215Z AUTO 16014KT 10SM OVC065 27/21 A2964 RMK AO2
8:55PM
VFR
81° 70° 84° 70
%
10
mi
1003.7
mb
6500
ft
SSE 16
mph
0.00"
KCKP 180155Z AUTO 16014KT 10SM OVC065 27/21 A2964 RMK AO2
8:35PM
VFR
82° 70° 86° 66
%
10
mi
1004.1
mb
6500
ft
SSE 15
mph
22
mph
0.00"
KCKP 180135Z AUTO 16013G19KT 10SM OVC065 28/21 A2965 RMK AO2
8:15PM
VFR
81° 70° 84° 70
%
10
mi
1004.1
mb
5500
ft
SSE 17
mph
21
mph
0.00"
KCKP 180115Z AUTO 16015G18KT 10SM OVC055 27/21 A2965 RMK AO2
7:55PM
VFR
82° 70° 86° 66
%
10
mi
1004.1
mb
5000
ft
SSE 15
mph
21
mph
0.00"
KCKP 180055Z AUTO 16013G18KT 10SM BKN050 OVC070 28/21 A2965 RMK AO2
7:35PM
VFR
82° 70° 86° 66
%
10
mi
1004.4
mb
7000
ft
SSE 13
mph
0.00"
KCKP 180035Z AUTO 15011KT 10SM SCT060 OVC070 28/21 A2966 RMK AO2
7:15PM
VFR
82° 72° 87° 70
%
10
mi
1004.4
mb
7000
ft
SSE 12
mph
0.00"
KCKP 180015Z AUTO 15010KT 10SM SCT060 BKN070 OVC080 28/22 A2966 RMK AO2
6:55PM
VFR
82° 72° 87° 70
%
10
mi
1004.4
mb
6500
ft
SE 13
mph
0.00"
KCKP 172355Z AUTO 14011KT 10SM FEW048 BKN065 OVC080 28/22 A2966 RMK AO2 10281 20237
6:35PM
VFR
82° 72° 87° 70
%
10
mi
1004.4
mb
6500
ft
SSE 10
mph
0.00"
KCKP 172335Z AUTO 15009KT 10SM BKN065 OVC085 28/22 A2966 RMK AO2
6:15PM
VFR
82° 72° 87° 70
%
10
mi
1004.4
mb
7000
ft
SSE 13
mph
17
mph
0.00"
KCKP 172315Z AUTO 15011G15KT 10SM BKN070 OVC085 28/22 A2966 RMK AO2
5:55PM
VFR
82° 72° 87° 70
%
10
mi
1004.7
mb
6500
ft
SSE 10
mph
0.00"
KCKP 172255Z AUTO 15009KT 10SM SCT047 OVC065 28/22 A2967 RMK AO2
5:35PM
VFR
82° 72° 87° 70
%
10
mi
1004.7
mb
4700
ft
SE 10
mph
0.00"
KCKP 172235Z AUTO 14009KT 10SM BKN047 OVC065 28/22 A2967 RMK AO2
Click here to show this page without METARs/TAFs included